Latest Weather Observations for Halls Creek

IDD60801

Issued at 1:01 pm CST Friday 19 December 2014 (issued every 30 minutes, with the page automatically refreshed every 10 minutes)

About weather observations | Map of weather stations | Latest weather observations for NT | Other Formats
Station Details ID: 002012 Name: HALLS CREEK AIRPORT Lat: -18.23 Lon: 127.66 Height: 422.0 m
Data from the previous 72 hours. | See also: Recent months at Halls Creek
Date/Time
CST
Temp
°C
App
Temp
°C
Dew
Point
Rel
Hum
%
Delta-T
°C
Wind Press
QNH
hPa
Press
MSL
hPa
Rain
since 9 am
mm
Dir
 
Spd
km/h
Gust
km/h
Spd
kts
Gust
kts
19/12:30pm 33.2 37.0 20.2 46 8.8 CALM 0 0 0 0 1014.6 - 0.2
19/11:30am 29.2 33.0 20.1 58 6.1 CALM 0 0 0 0 1015.6 - 0.0
19/10:30am 27.5 31.9 21.4 69 4.1 CALM 0 0 0 0 1016.0 1012.5 0.6
19/10:00am 25.6 30.2 21.8 79 2.6 CALM 0 0 0 0 1016.1 - 0.6
19/09:30am 27.3 31.3 20.6 67 4.5 CALM 0 0 0 0 1015.9 - 0.2
19/09:00am 27.2 31.5 21.1 69 4.1 CALM 0 0 0 0 1014.9 - 0.2
19/08:30am 26.5 30.7 21.0 72 3.7 CALM 0 0 0 0 1014.5 - 0.2
19/08:00am 26.0 30.2 20.9 73 3.4 CALM 0 0 0 0 1014.2 - 0.2
19/07:00am 25.1 29.9 22.2 84 2.0 CALM 0 0 0 0 1012.7 - 0.2
19/06:30am 25.0 29.8 22.1 84 2.0 CALM 0 0 0 0 1012.2 - 0.2
19/06:00am 25.3 29.7 21.4 79 2.6 CALM 0 0 0 0 1011.5 - 0.2
19/05:30am 25.3 30.0 21.9 81 2.3 CALM 0 0 0 0 1011.7 - 0.2
19/05:00am 25.3 30.1 22.1 82 2.2 CALM 0 0 0 0 1011.8 - 0.2
19/04:30am 25.3 30.2 22.4 84 2.0 CALM 0 0 0 0 1011.7 1008.2 0.2
19/04:00am 25.4 30.4 22.5 84 2.0 CALM 0 0 0 0 1012.2 - 0.2
19/03:30am 25.6 30.4 22.2 81 2.3 CALM 0 0 0 0 1012.3 - 0.2
19/03:00am 25.7 30.6 22.3 81 2.3 CALM 0 0 0 0 1012.8 - 0.2
19/02:30am 25.9 30.7 22.1 79 2.6 CALM 0 0 0 0 1013.0 - 0.2
19/02:00am 26.1 30.8 22.0 78 2.8 CALM 0 0 0 0 1013.1 - 0.2
19/01:00am 26.1 30.9 22.1 78 2.7 CALM 0 0 0 0 1013.6 - 0.2
19/12:30am 26.3 31.1 22.2 78 2.8 CALM 0 0 0 0 1013.4 - 0.2
19/12:00am 26.2 31.0 22.2 78 2.7 CALM 0 0 0 0 1012.3 - 0.2
 
Date/Time
CST
Temp
°C
App
Temp
°C
Dew
Point
Rel
Hum
%
Delta-T
°C
Wind Press
QNH
hPa
Press
MSL
hPa
Rain
since 9 am
mm
Dir
 
Spd
km/h
Gust
km/h
Spd
kts
Gust
kts
18/11:30pm 26.2 31.0 22.2 78 2.7 CALM 0 0 0 0 1012.1 - 0.2
18/11:00pm 26.3 31.2 22.3 78 2.7 CALM 0 0 0 0 1012.2 - 0.2
18/10:30pm 26.2 31.0 22.2 78 2.7 CALM 0 0 0 0 1012.8 1009.2 0.2
18/10:00pm 25.9 30.8 22.4 81 2.4 CALM 0 0 0 0 1013.0 - 0.2
18/09:30pm 26.2 31.0 22.1 78 2.8 CALM 0 0 0 0 1013.2 - 0.2
18/09:00pm 26.8 31.5 21.9 74 3.3 CALM 0 0 0 0 1013.6 - 0.2
18/08:30pm 26.9 31.4 21.6 72 3.6 CALM 0 0 0 0 1012.0 - 0.2
18/08:00pm 27.2 31.6 21.3 70 4.0 CALM 0 0 0 0 1011.5 - 0.2
18/07:00pm 28.1 32.4 21.1 65 4.7 CALM 0 0 0 0 1011.0 - 0.2
18/06:30pm 28.2 32.6 21.3 66 4.7 CALM 0 0 0 0 1010.5 - 0.2
18/06:00pm 28.4 32.7 21.2 65 4.9 CALM 0 0 0 0 1010.6 - 0.2
18/05:30pm 29.8 34.2 21.4 60 5.7 CALM 0 0 0 0 1010.4 - 0.2
18/05:00pm 31.2 35.2 20.5 53 7.2 CALM 0 0 0 0 1009.8 - 0.2
18/04:30pm 31.8 35.4 22.1 56 6.7 E 6 19 3 10 1009.5 1006.0 0.2
18/04:00pm 31.7 35.5 21.7 55 6.9 SE 4 15 2 8 1009.0 - 0.2
18/03:30pm 29.7 34.0 22.6 65 4.9 S 4 7 2 4 1009.1 - 0.2
18/03:00pm 28.6 32.0 21.7 66 4.7 S 6 15 3 8 1010.1 - 0.2
18/02:30pm 27.3 30.6 21.9 72 3.7 SW 7 19 4 10 1009.9 - 0.2
18/02:00pm 27.0 30.6 23.1 79 2.7 S 9 19 5 10 1010.5 - 0.2
18/01:30pm 30.8 32.4 19.2 50 7.7 SE 9 28 5 15 1010.4 1006.8 0.0
18/01:12pm 32.3 33.2 20.1 48 8.2 SW 15 56 8 30 1010.1 - 0.0
18/01:05pm 37.4 38.0 19.4 35 12.2 SW 15 46 8 25 1009.7 - 0.0
18/01:00pm 37.7 39.4 18.6 32 12.8 WSW 7 19 4 10 1009.7 - 0.0
18/12:30pm 36.7 39.4 19.4 36 11.7 SW 4 7 2 4 1010.4 - 0.0
18/12:00pm 36.9 39.4 19.8 36 11.6 SE 6 15 3 8 1011.2 - 0.0
18/11:30am 36.2 38.5 19.8 38 11.1 SSW 7 19 4 10 1011.5 - 0.0
18/11:00am 35.6 38.1 20.3 40 10.4 SSW 7 19 4 10 1011.9 - 0.0
18/10:30am 35.1 37.8 20.2 41 10.1 SSW 6 15 3 8 1012.1 1008.6 0.0
18/10:00am 33.9 36.5 20.5 45 9.1 W 7 17 4 9 1012.2 - 0.0
18/09:30am 33.6 36.5 20.7 46 8.8 SSW 6 17 3 9 1012.1 - 0.0
18/09:00am 32.8 35.6 20.9 49 8.1 WSW 7 15 4 8 1012.1 - 0.0
18/08:30am 31.6 34.6 20.8 52 7.3 SW 6 13 3 7 1012.0 - 0.0
18/08:00am 30.2 33.6 21.6 60 5.9 WSW 6 13 3 7 1011.8 - 0.0
18/07:30am 29.3 33.8 22.2 65 4.9 SSW 2 4 1 2 1011.3 1007.8 0.0
18/07:00am 27.5 32.3 22.1 72 3.7 CALM 0 0 0 0 1010.8 - 0.0
18/06:30am 26.8 31.7 22.3 76 3.1 CALM 0 0 0 0 1010.4 - 0.0
18/06:00am 27.1 31.8 22.0 73 3.5 CALM 0 0 0 0 1009.7 - 0.0
18/05:30am 26.9 31.7 22.1 75 3.3 CALM 0 0 0 0 1009.1 - 0.0
18/05:00am 27.5 31.9 21.3 69 4.2 CALM 0 0 0 0 1008.9 - 0.0
18/04:30am 27.6 32.2 21.7 70 4.0 CALM 0 0 0 0 1008.8 1005.2 0.0
18/04:00am 27.8 32.3 21.5 68 4.3 CALM 0 0 0 0 1008.6 - 0.0
18/03:30am 28.6 32.9 21.1 64 5.1 CALM 0 0 0 0 1008.5 - 0.0
18/03:00am 29.0 32.8 20.2 59 5.9 CALM 0 0 0 0 1008.5 - 0.0
18/02:30am 29.4 33.2 20.1 57 6.2 CALM 0 0 0 0 1008.6 - 0.0
18/02:00am 29.3 33.9 21.7 63 5.2 CALM 0 0 0 0 1008.7 - 0.0
18/01:30am 29.6 34.0 21.4 61 5.6 CALM 0 0 0 0 1008.6 1005.0 0.0
18/01:00am 30.2 34.5 21.1 58 6.2 CALM 0 0 0 0 1008.7 - 0.0
18/12:30am 30.1 35.2 22.6 64 5.2 CALM 0 0 0 0 1008.6 - 0.0
18/12:00am 30.9 35.2 21.2 56 6.6 CALM 0 0 0 0 1008.8 - 0.0
 
Date/Time
CST
Temp
°C
App
Temp
°C
Dew
Point
Rel
Hum
%
Delta-T
°C
Wind Press
QNH
hPa
Press
MSL
hPa
Rain
since 9 am
mm
Dir
 
Spd
km/h
Gust
km/h
Spd
kts
Gust
kts
17/11:30pm 31.4 35.6 21.0 54 7.1 CALM 0 0 0 0 1009.0 - 0.0
17/11:00pm 31.7 35.8 20.8 52 7.4 CALM 0 0 0 0 1009.0 - 0.0
17/10:30pm 32.4 36.4 20.6 49 8.0 CALM 0 0 0 0 1008.7 1005.1 0.0
17/10:00pm 33.0 36.3 19.2 44 9.2 CALM 0 0 0 0 1008.4 - 0.0
17/09:30pm 32.6 36.3 20.0 47 8.5 CALM 0 0 0 0 1008.2 - 0.0
17/09:00pm 33.4 36.7 19.2 43 9.5 CALM 0 0 0 0 1007.9 - 0.0
17/08:30pm 33.5 36.9 19.3 43 9.5 CALM 0 0 0 0 1007.7 - 0.0
17/08:00pm 34.3 37.6 19.2 41 10.1 CALM 0 0 0 0 1007.3 - 0.0
17/07:30pm 34.7 38.3 19.7 41 10.1 CALM 0 0 0 0 1007.2 1003.7 0.0
17/07:00pm 35.6 38.6 18.5 36 11.4 CALM 0 0 0 0 1006.6 - 0.0
17/06:30pm 36.1 38.6 17.2 32 12.4 CALM 0 0 0 0 1006.2 - 0.0
17/06:00pm 36.9 39.3 17.1 31 13.0 CALM 0 0 0 0 1005.8 - 0.0
17/05:30pm 36.8 39.1 16.7 30 13.1 CALM 0 0 0 0 1005.7 - 0.0
17/04:00pm 36.6 38.1 18.1 33 12.3 S 7 19 4 10 1006.3 - 0.0
17/03:30pm 37.0 38.4 18.6 34 12.3 ESE 9 22 5 12 1006.5 - 0.0
17/03:00pm 35.6 37.1 18.1 35 11.6 SE 7 19 4 10 1006.9 - 0.0
17/02:30pm 36.6 38.0 18.7 35 12.0 ESE 9 19 5 10 1007.6 - 0.0
17/02:00pm 35.1 37.1 19.1 39 10.7 ESE 7 19 4 10 1008.4 - 0.0
17/01:30pm 34.7 36.9 19.2 40 10.4 E 6 17 3 9 1009.0 1005.5 0.0
17/01:00pm 34.5 36.2 19.3 40 10.2 WSW 9 19 5 10 1009.4 - 0.0
17/12:30pm 33.9 36.3 20.0 44 9.4 WSW 7 17 4 9 1010.2 - 0.0
17/12:00pm 33.0 35.3 19.8 45 8.9 SW 7 19 4 10 1010.7 - 0.0
17/11:30am 32.9 35.7 20.5 48 8.4 S 6 15 3 8 1011.1 - 0.0
17/11:00am 31.6 34.3 20.2 50 7.7 SSE 6 17 3 9 1011.6 - 0.0
17/10:30am 31.5 34.2 20.6 52 7.4 S 7 19 4 10 1011.6 1008.1 34.0
17/10:00am 30.5 33.2 20.2 54 6.9 SSE 6 13 3 7 1011.7 - 34.0
17/09:30am 29.2 31.9 20.2 58 6.0 S 6 13 3 7 1011.9 - 34.0
17/09:00am 27.0 29.6 20.1 66 4.6 S 6 11 3 6 1011.8 - 34.0
17/08:30am - - - - - SSE 6 11 3 6 - - 34.0
17/08:00am 26.2 29.0 20.5 71 3.8 S 6 15 3 8 1011.3 - 34.0
17/07:30am 26.1 28.9 20.4 71 3.8 SE 6 15 3 8 1010.9 1007.3 34.0
17/07:00am 24.8 28.7 20.4 76 2.9 CALM 0 0 0 0 1010.5 - 34.0
17/06:30am 24.8 28.7 20.3 76 3.0 CALM 0 0 0 0 1009.7 - 34.0
17/06:00am 23.8 28.4 21.7 88 1.4 CALM 0 0 0 0 1009.2 - 34.0
17/05:30am 23.7 28.3 21.8 89 1.3 CALM 0 0 0 0 1008.4 - 34.0
17/05:00am 23.7 28.4 21.9 90 1.2 CALM 0 0 0 0 1008.0 - 34.0
17/04:30am 24.1 28.8 21.9 87 1.5 CALM 0 0 0 0 1007.8 1004.2 34.0
17/04:00am 24.4 29.2 22.2 87 1.5 CALM 0 0 0 0 1007.7 - 34.0
17/03:30am 24.7 29.4 22.0 85 1.8 CALM 0 0 0 0 1007.3 - 34.0
17/03:00am 25.2 30.0 22.1 83 2.1 CALM 0 0 0 0 1007.4 - 34.0
17/02:30am 25.5 30.4 22.3 82 2.2 CALM 0 0 0 0 1007.2 - 34.0
17/02:00am 25.6 30.3 21.9 80 2.5 CALM 0 0 0 0 1007.3 - 34.0
17/01:30am 25.7 30.3 21.7 78 2.7 CALM 0 0 0 0 1007.4 1003.9 34.0
17/01:00am 25.2 30.1 22.3 84 2.0 CALM 0 0 0 0 1008.0 - 34.0
17/12:30am 25.3 29.9 21.8 81 2.4 CALM 0 0 0 0 1008.1 - 34.0
17/12:00am 25.2 30.1 22.3 84 2.0 CALM 0 0 0 0 1008.2 - 34.0
 
Date/Time
CST
Temp
°C
App
Temp
°C
Dew
Point
Rel
Hum
%
Delta-T
°C
Wind Press
QNH
hPa
Press
MSL
hPa
Rain
since 9 am
mm
Dir
 
Spd
km/h
Gust
km/h
Spd
kts
Gust
kts
16/11:30pm 25.3 30.2 22.4 84 2.0 CALM 0 0 0 0 1008.4 - 34.0
16/11:00pm 25.6 30.2 21.8 79 2.6 CALM 0 0 0 0 1008.8 - 34.0
16/10:30pm 25.7 30.1 21.4 77 2.9 CALM 0 0 0 0 1008.7 1005.1 34.0
16/10:00pm 25.5 30.1 21.8 80 2.5 CALM 0 0 0 0 1008.3 - 34.0
16/09:30pm 25.1 30.1 22.5 85 1.8 CALM 0 0 0 0 1008.7 - 34.0
16/09:00pm 25.6 30.4 22.2 81 2.3 CALM 0 0 0 0 1008.5 - 34.0
16/08:30pm 26.4 30.8 21.4 74 3.4 CALM 0 0 0 0 1008.5 - 34.0
16/08:00pm 26.6 31.0 21.4 73 3.5 CALM 0 0 0 0 1008.1 - 34.0
16/07:30pm 26.3 30.9 21.7 76 3.1 CALM 0 0 0 0 1008.1 1004.5 34.0
16/07:00pm 25.8 30.7 22.3 81 2.4 CALM 0 0 0 0 1007.7 - 33.8
16/06:30pm 25.9 30.5 21.8 78 2.8 CALM 0 0 0 0 1007.4 - 33.8
16/06:00pm 26.1 31.1 22.5 80 2.5 CALM 0 0 0 0 1007.3 - 33.6
16/05:30pm 26.1 31.3 22.9 82 2.2 CALM 0 0 0 0 1006.7 - 33.6
16/05:00pm 26.1 31.1 22.5 80 2.5 CALM 0 0 0 0 1006.3 - 33.6
16/04:30pm 25.8 30.2 22.1 80 2.5 S 2 6 1 3 1006.6 1003.0 33.6
16/04:00pm 25.2 28.5 21.8 81 2.3 E 7 19 4 10 1006.6 - 33.6
16/03:30pm 24.8 27.8 21.2 80 2.4 ENE 7 15 4 8 1008.4 - 33.6
16/03:26pm 24.6 27.9 21.5 83 2.1 E 6 19 3 10 1008.8 - 33.6
16/03:00pm 24.2 24.1 19.5 75 3.1 E 19 46 10 25 1007.6 - 33.4

Other Formats:

Comma delimited format used in spreadsheet applications
http://www.bom.gov.au/fwo/IDD60801/IDD60801.94212.axf

JavaScript Object Notation format (JSON) in row-major order
http://www.bom.gov.au/fwo/IDD60801/IDD60801.94212.json